Time;durP1;ratioP1;P1;durP2;ratioP2;P2;SDS_P1;SDS_P2;PMS_P1;PMS_P2;Temp;Humidity;BMP_temperature;BMP_pressure;BME280_temperature;BME280_humidity;BME280_pressure;Samples;Min_cycle;Max_cycle;Signal;HPM_P1;HPM_P2
2022/12/12 00:02:07;;;;;;;6.80;2.83;;;-3.40;99.90;;;;;;5025282;28;20049;-68
2022/12/12 00:04:34;;;;;;;9.88;3.47;;;-3.40;99.90;;;;;;5028791;28;20457;-62
2022/12/12 00:07:00;;;;;;;5.53;1.90;;;-3.40;99.90;;;;;;5015479;28;20073;-62
2022/12/12 00:09:27;;;;;;;6.78;2.42;;;-3.50;99.90;;;;;;5017031;28;20448;-62
2022/12/12 00:11:54;;;;;;;4.72;2.33;;;-3.50;99.90;;;;;;5023435;28;20560;-62
2022/12/12 00:14:21;;;;;;;5.03;2.42;;;-3.50;99.90;;;;;;5012164;28;20070;-61
2022/12/12 00:16:47;;;;;;;5.32;2.40;;;-3.50;99.90;;;;;;5013300;28;20073;-61
2022/12/12 00:19:14;;;;;;;4.95;2.33;;;-3.60;99.90;;;;;;5014409;28;20141;-62
2022/12/12 00:21:41;;;;;;;6.38;3.13;;;-3.60;99.90;;;;;;5013876;28;20038;-61
2022/12/12 00:24:07;;;;;;;4.80;2.20;;;-3.60;99.90;;;;;;5013810;28;20403;-61
2022/12/12 00:26:34;;;;;;;15.13;3.78;;;-3.60;99.90;;;;;;5014420;28;20091;-61
2022/12/12 00:29:03;;;;;;;4.45;1.95;;;-3.70;99.90;;;;;;5013752;28;20104;-61
2022/12/12 00:31:31;;;;;;;8.15;3.80;;;-3.70;99.90;;;;;;5012739;28;20046;-61
2022/12/12 00:33:58;;;;;;;11.57;4.53;;;-3.80;99.90;;;;;;5013512;28;20034;-61
2022/12/12 00:36:29;;;;;;;11.52;4.72;;;-3.90;99.90;;;;;;5012693;28;20069;-61
2022/12/12 00:38:57;;;;;;;10.38;4.47;;;-4.10;99.90;;;;;;5013107;28;20041;-61
2022/12/12 00:41:24;;;;;;;10.40;4.50;;;-4.20;99.90;;;;;;5012682;28;20073;-61
2022/12/12 00:43:51;;;;;;;7.47;2.83;;;-4.30;99.90;;;;;;5022120;28;20108;-61
2022/12/12 00:46:22;;;;;;;5.43;2.50;;;-4.40;99.90;;;;;;5016868;28;20088;-61
2022/12/12 00:48:49;;;;;;;6.00;2.08;;;-4.40;99.90;;;;;;4996351;28;20076;-61
2022/12/12 00:51:19;;;;;;;5.03;1.95;;;-4.50;99.90;;;;;;5012797;28;20073;-61
2022/12/12 00:53:46;;;;;;;8.05;2.70;;;-4.50;99.90;;;;;;5012288;28;20042;-61
2022/12/12 00:56:19;;;;;;;7.60;1.95;;;-4.50;99.90;;;;;;5013991;28;20042;-62
2022/12/12 00:58:47;;;;;;;9.30;3.00;;;-4.50;99.90;;;;;;5023899;28;20541;-61
2022/12/12 01:01:17;;;;;;;6.55;2.30;;;-4.50;99.90;;;;;;5033654;28;20053;-61
2022/12/12 01:03:45;;;;;;;9.38;2.78;;;-4.60;99.90;;;;;;5030280;28;20046;-61
2022/12/12 01:06:12;;;;;;;;;;;-4.60;99.90;;;;;;5014228;28;20046;-61
2022/12/12 01:08:40;;;;;;;4.20;1.75;;;-4.60;99.90;;;;;;5030426;28;19952;-61
2022/12/12 01:11:08;;;;;;;;;;;-4.70;99.90;;;;;;5019633;28;20073;-61
2022/12/12 01:13:35;;;;;;;7.10;2.10;;;-4.70;99.90;;;;;;5014732;28;19961;-61
2022/12/12 01:16:02;;;;;;;;;;;-4.70;99.90;;;;;;5014448;28;20092;-61
2022/12/12 01:18:29;;;;;;;6.38;1.48;;;-4.70;99.90;;;;;;5027629;28;20378;-62
2022/12/12 01:20:56;;;;;;;7.90;3.05;;;-4.70;99.90;;;;;;5024901;28;20102;-62
2022/12/12 01:23:23;;;;;;;11.18;4.05;;;-4.60;99.90;;;;;;5032198;28;20440;-62
2022/12/12 01:25:57;;;;;;;7.60;3.08;;;-4.60;99.90;;;;;;5016509;28;20046;-61
2022/12/12 01:28:24;;;;;;;8.75;3.67;;;-4.50;99.90;;;;;;5016501;28;20119;-61
2022/12/12 01:30:51;;;;;;;6.35;2.85;;;-4.50;99.90;;;;;;5013223;28;20550;-61
2022/12/12 01:33:18;;;;;;;17.58;6.43;;;-4.40;99.90;;;;;;5017681;28;20081;-61
2022/12/12 01:35:45;;;;;;;20.48;7.93;;;-4.40;99.90;;;;;;5016738;28;20473;-61
2022/12/12 01:38:12;;;;;;;18.98;7.03;;;-4.50;99.90;;;;;;5013071;28;20050;-61
2022/12/12 01:40:38;;;;;;;10.38;3.97;;;-4.60;99.90;;;;;;5013068;28;20077;-62
2022/12/12 01:43:10;;;;;;;7.85;2.83;;;-4.50;99.90;;;;;;5012411;28;20046;-61
2022/12/12 01:45:56;;;;;;;5.85;2.47;;;-4.50;99.90;;;;;;5024718;28;20410;-61
2022/12/12 01:48:27;;;;;;;5.88;2.60;;;-4.60;99.90;;;;;;5023985;28;20080;-61
2022/12/12 01:50:56;;;;;;;8.25;2.60;;;-4.50;99.90;;;;;;5012915;28;20034;-61
2022/12/12 01:53:25;;;;;;;5.18;2.35;;;-4.50;99.90;;;;;;5012214;28;20410;-61
2022/12/12 01:55:53;;;;;;;6.25;2.35;;;-4.50;99.90;;;;;;5013125;28;20081;-61
2022/12/12 01:58:19;;;;;;;4.90;2.00;;;-4.60;99.90;;;;;;5019560;28;20103;-61
2022/12/12 02:00:46;;;;;;;3.63;1.73;;;-4.70;99.90;;;;;;5006697;28;20046;-61
2022/12/12 02:03:13;;;;;;;6.25;2.22;;;-4.80;99.90;;;;;;5032191;28;20048;-61
2022/12/12 02:05:50;;;;;;;6.07;2.28;;;-4.80;99.90;;;;;;5032278;28;20046;-61
2022/12/12 02:08:20;;;;;;;5.18;2.22;;;-4.80;99.90;;;;;;5004523;28;20073;-61
2022/12/12 02:10:48;;;;;;;3.65;1.70;;;-4.80;99.90;;;;;;5012636;28;20064;-61
2022/12/12 02:13:19;;;;;;;7.57;2.50;;;-4.80;99.90;;;;;;5011659;28;20045;-61
2022/12/12 02:16:10;;;;;;;6.00;2.38;;;-4.90;99.90;;;;;;5012616;28;20541;-61
2022/12/12 02:18:54;;;;;;;5.30;2.22;;;-4.80;99.90;;;;;;5011914;28;20038;-61
2022/12/12 02:21:50;;;;;;;6.18;2.20;;;-4.80;99.90;;;;;;5012380;28;20136;-61
2022/12/12 02:24:51;;;;;;;6.32;2.00;;;-4.90;99.90;;;;;;5012283;28;20223;-61
2022/12/12 02:27:43;;;;;;;3.85;2.03;;;-4.90;99.90;;;;;;5027209;28;20409;-61
2022/12/12 02:30:15;;;;;;;3.95;1.80;;;-5.00;99.90;;;;;;5031993;28;20037;-61
2022/12/12 02:33:11;;;;;;;11.05;2.00;;;-5.00;99.90;;;;;;5012168;28;20046;-61
2022/12/12 02:36:03;;;;;;;3.47;1.55;;;-5.00;99.90;;;;;;4925166;28;20048;-61
2022/12/12 02:38:49;;;;;;;5.55;2.42;;;-5.10;99.90;;;;;;5011802;28;20042;-61
2022/12/12 02:41:25;;;;;;;4.03;1.77;;;-5.10;99.90;;;;;;5019481;28;20383;-61
2022/12/12 02:43:59;;;;;;;4.80;1.95;;;-5.10;99.90;;;;;;5012041;28;20042;-61
2022/12/12 02:46:50;;;;;;;6.68;1.73;;;-5.20;99.90;;;;;;5011874;28;20042;-62
2022/12/12 02:49:35;;;;;;;4.22;1.80;;;-5.20;99.90;;;;;;5011467;28;20038;-62
2022/12/12 02:52:05;;;;;;;6.28;2.00;;;-5.30;99.90;;;;;;5011573;28;20077;-61
2022/12/12 02:54:31;;;;;;;4.00;1.73;;;-5.30;99.90;;;;;;5011943;28;20112;-61
2022/12/12 02:57:00;;;;;;;3.67;1.70;;;-5.30;99.90;;;;;;5015334;28;20046;-61
2022/12/12 02:59:32;;;;;;;3.28;1.77;;;-5.40;99.90;;;;;;5012321;28;20096;-61
2022/12/12 03:02:05;;;;;;;6.20;1.60;;;-5.40;99.90;;;;;;5010998;28;20056;-61
2022/12/12 03:07:47;;;;;;;8.63;2.45;;;-5.40;99.90;;;;;;5019542;28;20095;-61
2022/12/12 03:10:41;;;;;;;3.95;1.60;;;-5.40;99.90;;;;;;5011752;28;20121;-61
2022/12/12 03:13:37;;;;;;;4.05;1.77;;;-5.40;99.90;;;;;;4975193;28;20058;-61
2022/12/12 03:16:08;;;;;;;3.92;1.50;;;-5.40;99.90;;;;;;5004929;28;20084;-61
2022/12/12 03:18:59;;;;;;;3.63;1.58;;;-5.40;99.90;;;;;;5051939;22;20597;-64
2022/12/12 03:21:37;;;;;;;6.45;1.88;;;-5.40;99.90;;;;;;5050242;28;20072;-64
2022/12/12 03:24:18;;;;;;;5.18;1.98;;;-5.50;99.90;;;;;;5051309;28;20069;-64
2022/12/12 03:26:54;;;;;;;8.52;2.10;;;-5.40;99.90;;;;;;5044573;28;20064;-64
2022/12/12 03:29:27;;;;;;;4.85;2.03;;;-5.40;99.90;;;;;;5047202;28;20452;-64
2022/12/12 03:32:00;;;;;;;3.15;1.70;;;-5.40;99.90;;;;;;5050129;28;20049;-64
2022/12/12 03:34:34;;;;;;;6.97;2.50;;;-5.40;99.90;;;;;;5046727;28;20171;-64
2022/12/12 03:37:17;;;;;;;5.82;2.42;;;-5.40;99.90;;;;;;5044457;28;20104;-64
2022/12/12 03:39:50;;;;;;;5.03;1.70;;;-5.40;99.90;;;;;;5050934;28;20400;-64
2022/12/12 03:42:34;;;;;;;3.78;1.75;;;-5.50;99.90;;;;;;5049463;28;20114;-64
2022/12/12 03:45:21;;;;;;;3.75;1.83;;;-5.60;99.90;;;;;;5051232;28;20489;-64
2022/12/12 03:47:57;;;;;;;4.65;1.85;;;-5.60;99.90;;;;;;5049555;28;20528;-64
2022/12/12 03:50:33;;;;;;;4.45;2.10;;;-5.60;99.90;;;;;;5053955;28;20716;-64
2022/12/12 03:53:02;;;;;;;3.58;1.80;;;-5.60;99.90;;;;;;5054810;28;20128;-64
2022/12/12 03:55:37;;;;;;;4.55;1.83;;;-5.60;99.90;;;;;;5050435;28;20048;-64
2022/12/12 03:58:19;;;;;;;5.22;1.92;;;-5.70;99.90;;;;;;5054935;28;20049;-64
2022/12/12 04:00:50;;;;;;;6.63;2.25;;;-5.70;99.90;;;;;;5054251;28;20124;-64
2022/12/12 04:03:39;;;;;;;4.13;1.60;;;-5.70;99.90;;;;;;5051280;28;20043;-64
2022/12/12 04:06:30;;;;;;;4.78;1.67;;;-5.70;99.90;;;;;;5054399;28;20037;-64
2022/12/12 04:14:55;;;;;;;6.15;2.20;;;-5.90;99.90;;;;;;5054278;28;20106;-64
2022/12/12 04:17:30;;;;;;;6.25;1.77;;;-5.80;99.90;;;;;;5052727;28;20076;-64
2022/12/12 04:23:20;;;;;;;5.30;2.67;;;-6.00;99.90;;;;;;5051821;28;20059;-64
2022/12/12 04:29:08;;;;;;;6.97;2.55;;;-6.40;99.90;;;;;;5054208;28;20132;-64
2022/12/12 04:31:46;;;;;;;13.98;3.20;;;-6.40;99.90;;;;;;5045318;28;20107;-64
2022/12/12 04:34:21;;;;;;;4.15;1.55;;;-6.40;99.90;;;;;;5054210;28;20375;-64
2022/12/12 04:36:48;;;;;;;6.22;2.65;;;-6.30;99.90;;;;;;5054147;28;20049;-64
2022/12/12 04:39:18;;;;;;;6.50;2.55;;;-6.30;99.90;;;;;;5049637;28;20529;-64
2022/12/12 04:41:48;;;;;;;6.22;2.55;;;-6.20;99.90;;;;;;5052019;28;20075;-64
2022/12/12 04:44:16;;;;;;;5.03;2.08;;;-6.10;99.90;;;;;;5045080;28;20041;-64
2022/12/12 04:46:47;;;;;;;4.00;1.65;;;-6.00;99.90;;;;;;5053865;28;20114;-64
2022/12/12 04:49:18;;;;;;;4.68;1.90;;;-6.00;99.90;;;;;;5046040;28;20037;-64
2022/12/12 04:51:51;;;;;;;4.30;1.63;;;-6.00;99.90;;;;;;5052099;28;20387;-64
2022/12/12 04:54:26;;;;;;;5.95;2.20;;;-6.00;99.90;;;;;;5053351;28;20106;-64
2022/12/12 04:56:57;;;;;;;4.28;1.48;;;-6.00;99.90;;;;;;5052822;28;20044;-64
2022/12/12 04:59:24;;;;;;;4.57;2.10;;;-6.10;99.90;;;;;;5045696;28;20049;-64
2022/12/12 05:02:08;;;;;;;;;;;-6.10;99.90;;;;;;5045012;28;20115;-64
2022/12/12 05:04:57;;;;;;;5.70;2.03;;;-6.30;99.90;;;;;;5043109;28;20016;-64
2022/12/12 05:07:30;;;;;;;;;;;-6.60;99.90;;;;;;5045528;28;20049;-64
2022/12/12 05:10:16;;;;;;;7.43;2.75;;;-6.70;99.90;;;;;;5045192;28;20381;-64
2022/12/12 05:12:45;;;;;;;8.52;3.60;;;-6.70;99.90;;;;;;5052587;28;20045;-64
2022/12/12 05:15:13;;;;;;;10.52;3.17;;;-6.60;99.90;;;;;;5051541;28;20037;-64
2022/12/12 05:18:01;;;;;;;10.95;3.97;;;-6.50;99.90;;;;;;5052761;28;20045;-64
2022/12/12 05:20:28;;;;;;;29.10;7.73;;;-6.30;99.90;;;;;;5040686;28;20048;-64
2022/12/12 05:22:54;;;;;;;49.40;12.70;;;-6.20;99.90;;;;;;5051838;28;20397;-64
2022/12/12 05:25:21;;;;;;;9.93;4.40;;;-6.20;99.90;;;;;;5043969;28;20049;-64
2022/12/12 05:27:48;;;;;;;16.33;5.10;;;-6.20;99.90;;;;;;5052129;28;20049;-64
2022/12/12 05:30:15;;;;;;;8.20;3.20;;;-6.10;99.90;;;;;;5050911;28;20044;-64
2022/12/12 05:32:42;;;;;;;5.57;2.38;;;-6.20;99.90;;;;;;5048084;28;20088;-64
2022/12/12 05:35:09;;;;;;;5.25;2.38;;;-6.20;99.90;;;;;;5051803;28;20615;-64
2022/12/12 05:37:36;;;;;;;12.35;3.85;;;-6.20;99.90;;;;;;5031696;28;20494;-64
2022/12/12 05:40:04;;;;;;;8.90;2.83;;;-6.20;99.90;;;;;;5036806;28;20037;-64
2022/12/12 05:42:31;;;;;;;8.65;2.97;;;-6.20;99.90;;;;;;5052017;28;20037;-65
2022/12/12 05:44:58;;;;;;;12.27;3.88;;;-6.30;99.90;;;;;;5051554;28;20079;-64
2022/12/12 05:47:24;;;;;;;9.23;3.75;;;-6.50;99.90;;;;;;5052695;28;20033;-64
2022/12/12 05:49:51;;;;;;;13.10;3.70;;;-6.70;99.90;;;;;;5040955;28;20095;-64
2022/12/12 05:52:18;;;;;;;8.20;3.85;;;-6.90;99.90;;;;;;5046184;28;20501;-64
2022/12/12 05:54:45;;;;;;;9.27;3.67;;;-7.00;99.90;;;;;;5052425;28;20072;-64
2022/12/12 05:57:12;;;;;;;9.82;3.50;;;-7.00;99.90;;;;;;5050384;28;20037;-63
2022/12/12 05:59:39;;;;;;;4.20;2.05;;;-7.00;99.90;;;;;;5049130;28;20066;-64
2022/12/12 06:02:05;;;;;;;8.88;3.15;;;-7.00;99.90;;;;;;5044504;28;20067;-63
2022/12/12 06:04:32;;;;;;;13.80;3.83;;;-7.00;99.90;;;;;;5051984;28;20463;-64
2022/12/12 06:06:59;;;;;;;9.15;3.35;;;-7.00;99.90;;;;;;5051611;28;20033;-64
2022/12/12 06:09:26;;;;;;;20.92;8.40;;;-7.00;99.90;;;;;;5047164;28;20041;-64
2022/12/12 06:11:52;;;;;;;17.15;7.60;;;-7.00;99.90;;;;;;5050123;28;20087;-64
2022/12/12 06:14:19;;;;;;;11.88;4.80;;;-7.00;99.90;;;;;;5050983;28;20072;-63
2022/12/12 06:16:46;;;;;;;12.35;4.90;;;-7.00;99.90;;;;;;5050512;28;20438;-64
2022/12/12 06:19:13;;;;;;;9.75;3.60;;;-6.90;99.90;;;;;;5049327;28;20041;-63
2022/12/12 06:21:39;;;;;;;9.32;3.28;;;-6.80;99.90;;;;;;5050785;28;20041;-63
2022/12/12 06:24:06;;;;;;;9.10;4.60;;;-6.80;99.90;;;;;;5044793;28;20037;-63
2022/12/12 06:26:33;;;;;;;;;;;-6.70;99.90;;;;;;5052324;28;20037;-64
2022/12/12 06:29:00;;;;;;;9.27;3.42;;;-6.70;99.90;;;;;;5052077;28;20324;-63
2022/12/12 06:31:27;;;;;;;8.05;3.08;;;-6.60;99.90;;;;;;5049572;28;20505;-63
2022/12/12 06:33:53;;;;;;;7.47;3.28;;;-6.60;99.90;;;;;;5051364;28;20056;-64
2022/12/12 06:36:23;;;;;;;8.82;3.20;;;-6.60;99.90;;;;;;5049966;28;20072;-63
2022/12/12 06:38:54;;;;;;;9.73;3.03;;;-6.60;99.90;;;;;;5051550;28;20068;-64
2022/12/12 06:41:23;;;;;;;10.00;3.40;;;-6.60;99.90;;;;;;5045360;28;20490;-64
2022/12/12 06:43:50;;;;;;;9.05;3.92;;;-6.60;99.90;;;;;;5049706;28;20551;-64
2022/12/12 06:46:22;;;;;;;10.18;4.20;;;-6.60;99.90;;;;;;5048793;28;20059;-64
2022/12/12 06:48:49;;;;;;;10.70;3.22;;;-6.60;99.90;;;;;;5046822;28;20045;-63
2022/12/12 06:51:19;;;;;;;11.55;3.72;;;-6.60;99.90;;;;;;5050840;28;20036;-63
2022/12/12 06:53:46;;;;;;;9.15;3.75;;;-6.60;99.90;;;;;;5049380;28;20048;-64
2022/12/12 06:56:16;;;;;;;5.97;2.88;;;-6.60;99.90;;;;;;5051578;28;20460;-64
2022/12/12 06:58:43;;;;;;;7.55;3.10;;;-6.60;99.90;;;;;;5045482;28;20099;-64
2022/12/12 07:01:11;;;;;;;8.55;3.10;;;-6.60;99.90;;;;;;5051278;28;20041;-64
2022/12/12 07:03:39;;;;;;;10.73;4.07;;;-6.60;99.90;;;;;;5047817;28;20114;-63
2022/12/12 07:06:06;;;;;;;7.22;2.78;;;-6.60;99.90;;;;;;5051059;28;20234;-63
2022/12/12 07:08:34;;;;;;;11.63;3.65;;;-6.60;99.90;;;;;;5050361;28;20076;-64
2022/12/12 07:11:05;;;;;;;12.25;3.38;;;-6.50;99.90;;;;;;5045770;28;20094;-64
2022/12/12 07:13:32;;;;;;;19.85;5.55;;;-6.50;99.90;;;;;;5050980;28;20041;-63
2022/12/12 07:15:59;;;;;;;17.35;4.97;;;-6.50;99.90;;;;;;5050985;28;20098;-63
2022/12/12 07:18:27;;;;;;;17.85;4.78;;;-6.50;99.90;;;;;;5051116;28;20555;-63
2022/12/12 07:20:54;;;;;;;6.72;2.85;;;-6.40;99.90;;;;;;5048624;28;20448;-63
2022/12/12 07:23:21;;;;;;;;;;;-6.40;99.90;;;;;;5051161;28;20551;-63
2022/12/12 07:25:47;;;;;;;9.52;3.17;;;-6.30;99.90;;;;;;5051019;28;19920;-64
2022/12/12 07:28:15;;;;;;;6.72;2.85;;;-6.30;99.90;;;;;;5041865;28;20029;-64
2022/12/12 07:30:44;;;;;;;14.43;4.93;;;-6.30;99.90;;;;;;5051096;28;20060;-64
2022/12/12 07:33:13;;;;;;;16.52;5.07;;;-6.20;99.90;;;;;;5049755;28;20049;-64
2022/12/12 07:35:40;;;;;;;7.15;2.88;;;-6.20;99.90;;;;;;5046413;28;20037;-64
2022/12/12 07:38:08;;;;;;;7.20;2.70;;;-6.20;99.90;;;;;;5050596;28;20044;-63
2022/12/12 07:40:35;;;;;;;9.25;3.58;;;-6.30;99.90;;;;;;5051402;28;20052;-64
2022/12/12 07:43:02;;;;;;;11.13;3.83;;;-6.50;99.90;;;;;;5041832;28;20073;-64
2022/12/12 07:45:30;;;;;;;12.00;4.20;;;-6.50;99.90;;;;;;5046353;28;20040;-63
2022/12/12 07:47:56;;;;;;;11.30;4.22;;;-6.50;99.90;;;;;;5048443;28;20498;-63
2022/12/12 07:50:23;;;;;;;8.98;4.15;;;-6.50;99.90;;;;;;5050641;28;20048;-63
2022/12/12 07:52:50;;;;;;;16.00;4.88;;;-6.40;99.90;;;;;;5046136;28;20065;-64
2022/12/12 07:55:17;;;;;;;10.70;5.00;;;-6.30;99.90;;;;;;5050797;28;20489;-64
2022/12/12 07:57:44;;;;;;;12.48;5.22;;;-6.20;99.90;;;;;;5050405;28;20075;-63
2022/12/12 08:00:13;;;;;;;11.82;4.38;;;-6.10;99.90;;;;;;5049110;28;20371;-64
2022/12/12 08:02:40;;;;;;;10.75;3.97;;;-6.00;99.90;;;;;;5049912;28;20473;-64
2022/12/12 08:05:07;;;;;;;9.98;4.45;;;-6.00;99.90;;;;;;5049733;28;20068;-63
2022/12/12 08:07:34;;;;;;;9.32;3.60;;;-6.00;99.90;;;;;;5050825;28;20051;-63
2022/12/12 08:10:01;;;;;;;16.20;5.97;;;-6.00;99.90;;;;;;5042514;28;20326;-63
2022/12/12 08:12:29;;;;;;;14.38;5.55;;;-5.80;99.90;;;;;;5048498;28;20077;-63
2022/12/12 08:14:56;;;;;;;21.77;7.65;;;-5.70;99.90;;;;;;5050369;28;20075;-63
2022/12/12 08:17:23;;;;;;;18.58;7.10;;;-5.60;99.90;;;;;;5046833;28;20056;-63
2022/12/12 08:19:50;;;;;;;15.95;5.32;;;-5.50;99.90;;;;;;5050142;28;20045;-64
2022/12/12 08:22:16;;;;;;;14.50;5.35;;;-5.40;99.90;;;;;;5049461;28;20045;-63
2022/12/12 08:24:43;;;;;;;14.75;5.93;;;-5.40;99.90;;;;;;5043630;28;20076;-64
2022/12/12 08:27:10;;;;;;;12.32;5.35;;;-5.20;99.90;;;;;;5050295;28;20061;-64
2022/12/12 08:29:42;;;;;;;12.52;5.03;;;-5.20;99.90;;;;;;5050178;28;20049;-64
2022/12/12 08:32:09;;;;;;;12.68;5.93;;;-5.10;99.90;;;;;;5050254;28;20131;-63
2022/12/12 08:34:36;;;;;;;12.63;6.13;;;-5.10;99.90;;;;;;5047912;28;20121;-64
2022/12/12 08:37:03;;;;;;;13.30;5.95;;;-5.00;99.90;;;;;;5054075;28;20072;-64
2022/12/12 08:39:30;;;;;;;18.75;6.35;;;-5.10;99.90;;;;;;5053693;28;20500;-63
2022/12/12 08:41:57;;;;;;;16.60;5.80;;;-5.00;99.90;;;;;;5053566;28;20444;-63
2022/12/12 08:44:24;;;;;;;19.45;6.93;;;-5.10;99.90;;;;;;5050314;28;20029;-63
2022/12/12 08:46:50;;;;;;;19.08;6.68;;;-5.20;99.90;;;;;;5053316;28;20072;-63
2022/12/12 08:49:17;;;;;;;20.67;6.60;;;-5.30;99.90;;;;;;5053580;28;20144;-63
2022/12/12 08:51:44;;;;;;;12.80;5.18;;;-5.30;99.90;;;;;;5053632;28;20095;-63
2022/12/12 08:54:12;;;;;;;14.20;5.68;;;-5.20;99.90;;;;;;5049383;28;20068;-64
2022/12/12 08:56:39;;;;;;;20.95;5.97;;;-5.10;99.90;;;;;;5053447;28;20045;-64
2022/12/12 08:59:06;;;;;;;21.25;6.03;;;-5.10;99.90;;;;;;5053904;28;20041;-64
2022/12/12 09:01:32;;;;;;;19.70;7.18;;;-5.10;99.90;;;;;;5049315;28;20067;-63
2022/12/12 09:04:00;;;;;;;15.57;6.25;;;-4.90;99.90;;;;;;5053439;28;20037;-64
2022/12/12 09:06:27;;;;;;;16.65;6.47;;;-4.80;99.90;;;;;;5051934;28;20064;-64
2022/12/12 09:08:55;;;;;;;17.02;6.35;;;-4.60;99.90;;;;;;5051450;28;20069;-64
2022/12/12 09:11:23;;;;;;;15.07;6.35;;;-4.30;99.90;;;;;;5044924;28;20041;-64
2022/12/12 09:13:50;;;;;;;17.20;6.68;;;-4.20;99.90;;;;;;5052381;28;20068;-64
2022/12/12 09:16:18;;;;;;;23.63;8.43;;;-4.10;99.90;;;;;;5040901;28;20095;-64
2022/12/12 09:18:45;;;;;;;19.05;7.50;;;-4.00;99.90;;;;;;5073702;22;20045;-61
2022/12/12 09:21:16;;;;;;;19.42;6.15;;;-3.90;99.90;;;;;;5067956;28;20412;-61
2022/12/12 09:23:42;;;;;;;16.83;6.90;;;-3.80;99.90;;;;;;5068713;28;20040;-61
2022/12/12 09:26:10;;;;;;;22.80;7.10;;;-4.00;99.90;;;;;;5072964;28;20064;-60
2022/12/12 09:28:38;;;;;;;21.80;6.82;;;-4.10;99.90;;;;;;5059416;28;20033;-61
2022/12/12 09:31:10;;;;;;;16.92;6.85;;;-4.10;99.90;;;;;;5052774;28;20393;-61
2022/12/12 09:33:37;;;;;;;18.95;6.25;;;-3.90;99.90;;;;;;5047587;28;20053;-60
2022/12/12 09:36:10;;;;;;;13.88;6.00;;;-3.70;99.90;;;;;;5052536;28;20061;-60
2022/12/12 09:38:37;;;;;;;16.23;6.57;;;-3.80;99.90;;;;;;5051901;28;20045;-60
2022/12/12 09:41:23;;;;;;;14.40;6.72;;;-3.90;99.90;;;;;;5053005;28;20037;-60
2022/12/12 09:44:05;;;;;;;16.15;6.00;;;-3.70;99.90;;;;;;5051120;28;20479;-61
2022/12/12 09:46:42;;;;;;;19.17;5.88;;;-3.60;99.90;;;;;;5051621;28;20045;-60
2022/12/12 09:49:35;;;;;;;16.08;6.82;;;-3.60;99.90;;;;;;5052514;28;20477;-60
2022/12/12 09:52:27;;;;;;;22.70;7.63;;;-3.70;99.90;;;;;;5050100;28;20189;-60
2022/12/12 09:54:58;;;;;;;11.45;5.40;;;-3.90;99.90;;;;;;5052473;28;20045;-60
2022/12/12 09:57:49;;;;;;;18.55;7.50;;;-4.10;99.90;;;;;;5052627;28;20497;-60
2022/12/12 10:00:18;;;;;;;14.43;6.68;;;-4.20;99.90;;;;;;5050513;28;20111;-60
2022/12/12 10:02:54;;;;;;;16.00;6.53;;;-4.20;99.90;;;;;;5050008;28;20111;-60
2022/12/12 10:05:41;;;;;;;10.73;4.65;;;-4.20;99.90;;;;;;5052089;28;20094;-60
2022/12/12 10:08:21;;;;;;;13.63;6.72;;;-4.30;99.90;;;;;;5040190;28;20040;-60
2022/12/12 10:10:52;;;;;;;19.52;5.90;;;-4.20;99.90;;;;;;5051873;28;20374;-61
2022/12/12 10:13:27;;;;;;;19.42;6.15;;;-4.20;99.90;;;;;;5051098;28;20505;-60
2022/12/12 10:16:06;;;;;;;13.43;6.28;;;-4.20;99.90;;;;;;5051647;28;20069;-60
2022/12/12 10:18:38;;;;;;;14.85;6.38;;;-4.20;99.90;;;;;;5048380;28;20048;-60
2022/12/12 10:21:13;;;;;;;17.90;6.53;;;-4.30;99.90;;;;;;5051949;28;20052;-60
2022/12/12 10:23:49;;;;;;;16.23;6.30;;;-4.20;99.90;;;;;;5051606;28;20087;-60
2022/12/12 10:26:29;;;;;;;14.73;6.07;;;-4.20;99.90;;;;;;5049674;28;20095;-60
2022/12/12 10:29:10;;;;;;;13.73;6.28;;;-4.00;99.90;;;;;;5052020;28;20489;-61
2022/12/12 10:31:54;;;;;;;13.65;7.00;;;-3.90;99.90;;;;;;5051083;28;20048;-60
2022/12/12 10:34:33;;;;;;;15.77;6.78;;;-3.70;99.90;;;;;;5050644;28;20041;-60
2022/12/12 10:37:21;;;;;;;16.25;7.07;;;-3.50;99.90;;;;;;5051452;28;20041;-60
2022/12/12 10:39:58;;;;;;;15.27;7.03;;;-3.40;99.90;;;;;;5051553;28;20041;-60
2022/12/12 10:42:44;;;;;;;14.20;6.23;;;-3.30;99.90;;;;;;5050391;28;20041;-60
2022/12/12 10:45:34;;;;;;;16.80;6.50;;;-3.30;99.90;;;;;;5045336;28;20037;-60
2022/12/12 10:48:01;;;;;;;14.00;6.60;;;-3.30;99.90;;;;;;5051721;28;20043;-60
2022/12/12 10:50:42;;;;;;;14.18;6.47;;;-3.30;99.90;;;;;;5050856;28;20061;-61
2022/12/12 10:53:11;;;;;;;14.55;5.47;;;-3.30;99.90;;;;;;5051106;28;20041;-60
2022/12/12 10:56:01;;;;;;;12.57;6.03;;;-3.20;99.90;;;;;;5049394;28;20037;-60
2022/12/12 10:58:36;;;;;;;12.85;5.05;;;-3.20;99.90;;;;;;5050834;28;20485;-60
2022/12/12 11:01:17;;;;;;;12.30;5.53;;;-3.30;99.90;;;;;;5049087;28;20049;-60
2022/12/12 11:03:47;;;;;;;13.88;5.10;;;-3.30;99.90;;;;;;5050510;28;20525;-60
2022/12/12 11:06:20;;;;;;;13.43;6.07;;;-3.10;99.90;;;;;;5051196;28;20068;-60
2022/12/12 11:08:59;;;;;;;15.15;6.20;;;-3.10;99.90;;;;;;5048122;28;20042;-60
2022/12/12 11:11:27;;;;;;;17.35;5.93;;;-3.10;99.90;;;;;;5032978;28;20064;-60
2022/12/12 11:14:00;;;;;;;11.48;5.45;;;-3.10;99.90;;;;;;5050735;28;20053;-60
2022/12/12 11:16:38;;;;;;;13.15;5.22;;;-3.10;99.90;;;;;;5051024;28;20032;-60
2022/12/12 11:19:17;;;;;;;11.25;5.30;;;-3.10;99.90;;;;;;5043493;28;20395;-60
2022/12/12 11:21:44;;;;;;;11.20;5.25;;;-3.10;99.90;;;;;;5050473;28;20501;-60
2022/12/12 11:24:17;;;;;;;16.88;5.60;;;-3.20;99.90;;;;;;5051099;28;20049;-60
2022/12/12 11:27:05;;;;;;;15.60;6.32;;;-3.10;99.90;;;;;;5048410;28;20494;-60
2022/12/12 11:29:48;;;;;;;17.40;5.63;;;-3.10;99.90;;;;;;5049946;28;20061;-60
2022/12/12 11:32:44;;;;;;;15.73;5.75;;;-3.00;99.90;;;;;;5050711;28;20110;-61
2022/12/12 11:35:34;;;;;;;14.93;5.88;;;-3.00;99.90;;;;;;5040421;28;20056;-60
2022/12/12 11:38:18;;;;;;;13.00;5.68;;;-3.00;99.90;;;;;;5050005;28;20110;-60
2022/12/12 11:41:02;;;;;;;16.88;6.65;;;-2.90;99.90;;;;;;5048058;28;20072;-60
2022/12/12 11:43:31;;;;;;;16.65;5.55;;;-2.90;99.90;;;;;;5049017;28;20080;-60
2022/12/12 11:46:14;;;;;;;12.35;5.00;;;-2.90;99.90;;;;;;5050898;28;20095;-60
2022/12/12 11:48:53;;;;;;;11.32;5.03;;;-2.80;99.90;;;;;;5050704;28;20068;-60
2022/12/12 11:51:29;;;;;;;21.58;6.95;;;-2.90;99.90;;;;;;5048009;28;20045;-60
2022/12/12 11:53:57;;;;;;;16.73;5.93;;;-3.00;99.90;;;;;;5050608;28;20041;-61
2022/12/12 11:56:31;;;;;;;13.90;5.75;;;-3.00;99.90;;;;;;5051029;28;20049;-60
2022/12/12 11:59:09;;;;;;;12.10;5.85;;;-2.90;99.90;;;;;;5050810;28;20091;-60
2022/12/12 12:02:07;;;;;;;12.93;5.80;;;-2.90;99.90;;;;;;5047396;28;20116;-60
2022/12/12 12:04:56;;;;;;;14.00;5.82;;;-2.90;99.90;;;;;;5050087;28;20073;-60
2022/12/12 12:07:45;;;;;;;18.00;5.88;;;-2.90;99.90;;;;;;5050879;28;20087;-60
2022/12/12 12:10:27;;;;;;;16.23;6.75;;;-2.80;99.90;;;;;;5050169;28;20546;-60
2022/12/12 12:12:57;;;;;;;15.70;6.55;;;-2.80;99.90;;;;;;5053966;28;20045;-60
2022/12/12 12:15:31;;;;;;;17.45;5.78;;;-2.80;99.90;;;;;;5054125;28;20069;-60
2022/12/12 12:18:16;;;;;;;11.63;5.05;;;-2.70;99.90;;;;;;5052857;28;20041;-60
2022/12/12 12:21:10;;;;;;;16.63;5.22;;;-2.70;99.90;;;;;;5054247;28;20080;-60
2022/12/12 12:24:01;;;;;;;16.95;6.35;;;-2.60;99.90;;;;;;5053596;28;20040;-60
2022/12/12 12:26:54;;;;;;;17.25;5.55;;;-2.50;99.90;;;;;;5051037;28;20033;-60
2022/12/12 12:29:26;;;;;;;9.05;4.70;;;-2.40;99.90;;;;;;5050869;28;20578;-60
2022/12/12 12:32:10;;;;;;;12.13;5.18;;;-1.90;99.90;;;;;;5052476;28;20079;-60
2022/12/12 12:34:40;;;;;;;14.00;5.88;;;-2.50;99.90;;;;;;5053911;28;20560;-60
2022/12/12 12:37:13;;;;;;;16.02;5.97;;;-2.50;99.90;;;;;;5053268;28;20420;-60
2022/12/12 12:40:06;;;;;;;17.67;5.43;;;-2.50;99.90;;;;;;5053851;28;20459;-60
2022/12/12 12:42:59;;;;;;;15.25;5.53;;;-2.40;99.90;;;;;;5053817;28;20456;-60
2022/12/12 12:45:48;;;;;;;14.75;5.25;;;-2.40;99.90;;;;;;4999174;28;20091;-60
2022/12/12 12:48:18;;;;;;;17.40;5.80;;;-2.30;99.90;;;;;;5053600;28;20516;-60
2022/12/12 12:50:54;;;;;;;11.52;5.50;;;-2.30;99.90;;;;;;5053813;28;20057;-60
2022/12/12 12:53:39;;;;;;;14.40;5.47;;;-2.30;99.90;;;;;;5052879;28;20075;-60
2022/12/12 12:56:27;;;;;;;18.25;6.22;;;-2.20;99.90;;;;;;5046635;28;20091;-60
2022/12/12 12:59:00;;;;;;;17.40;7.75;;;-2.30;99.90;;;;;;5053938;28;20493;-60
2022/12/12 13:01:37;;;;;;;15.82;6.50;;;-2.40;99.90;;;;;;5053247;28;20570;-60
2022/12/12 13:04:13;;;;;;;13.70;5.60;;;-2.30;99.90;;;;;;5053214;28;20037;-60
2022/12/12 13:07:03;;;;;;;23.67;5.75;;;-2.30;99.90;;;;;;5053067;28;20485;-60
2022/12/12 13:10:00;;;;;;;15.43;5.05;;;-2.30;99.90;;;;;;5052037;28;20072;-59
2022/12/12 13:12:36;;;;;;;13.57;5.70;;;-2.20;99.90;;;;;;5047211;28;20037;-60
2022/12/12 13:15:05;;;;;;;14.35;5.30;;;-2.10;99.90;;;;;;5044950;28;20498;-61
2022/12/12 13:17:52;;;;;;;21.05;5.13;;;-2.10;99.90;;;;;;5050812;28;20048;-60
2022/12/12 13:20:22;;;;;;;17.23;5.72;;;-2.20;99.90;;;;;;5030727;28;20118;-60
2022/12/12 13:23:04;;;;;;;17.55;6.05;;;-2.40;99.90;;;;;;5052281;28;20045;-60
2022/12/12 13:25:47;;;;;;;13.93;6.32;;;-2.50;99.90;;;;;;5052914;28;20087;-60
2022/12/12 13:28:18;;;;;;;14.45;6.40;;;-2.60;99.90;;;;;;5047699;28;20037;-60
2022/12/12 13:31:10;;;;;;;13.10;5.88;;;-2.70;99.90;;;;;;5052806;28;20041;-60